(°C)
11°
10°
10°
11°
12°
14°
16°
(°C)
10°
12°
14°
SSV
SSV
SSV
SSV
SV
SV
SV
(km/h)
16-23
15-20
14-23
13-20
13-19
14-20
14-20
(mm)
0
0
0
0
0
0
0
(%)
45
15
1
1
1
0
0

Elevația soarelui

/ -13.6°
sun-icon
UV 6
05:25
21:36
Al doilea pătrar (338°)
04:31
19:30

METAR pentru 51.15°N 51.54°E (UARR)

Ora Condiții Temperatură/
Punctul de rouă
Vânt Vizibilitate Vremea Nori Presiune Schimbă Brut
VFR 12°C / 11°C 220º 8kt >10km - Scattered Clouds 5000ft 1010 No Significant change UARR 272130Z 22004MPS 9999 SCT050CB 12/11 Q1010 NOSIG RMK QFE754/1005
VFR 12°C / 11°C 200º 8kt >10km - Scattered Clouds 5000ft 1009 No Significant change UARR 272100Z 20004MPS 9999 SCT050CB 12/11 Q1009 NOSIG RMK QFE753/1005
VFR 13°C / 12°C 230º 6kt >10km - Scattered Clouds 5000ft 1009 No Significant change UARR 272030Z 23003MPS 9999 SCT050CB 13/12 Q1009 NOSIG RMK QFE753/1005
VFR 13°C / 11°C 270º 4kt >10km Light Showers Rain 3.00mm precipitation Vertical Visibility of 0ft. 1009 No Significant change UARR 272000Z 27002MPS 9999 -SHRA SCT050CB 13/11 Q1009 NOSIG RMK QFE753/1004
VFR 16°C / 10°C 260º 16kt >10km Light Showers Rain 3.00mm precipitation Vertical Visibility of 0ft. 1009 No Significant change UARR 271930Z 26008MPS 9999 -SHRA SCT050CB 16/10 Q1009 NOSIG RMK QFE753/1005
VFR 15°C / 11°C 190º 12kt >10km - Scattered Clouds 5000ft 1009 No Significant change UARR 271900Z 19006MPS 9999 SCT050CB 15/11 Q1009 NOSIG RMK QFE753/1004
VFR 14°C / 10°C 190º 12kt >10km - Few Clouds 5000ft 1008 No Significant change UARR 271830Z 19006MPS 9999 FEW050CB 14/10 Q1008 NOSIG RMK QFE753/1004
VFR 14°C / 10°C 180º 10kt >10km - Few Clouds 5000ft 1008 No Significant change UARR 271800Z 18005MPS 9999 FEW050CB 14/10 Q1008 NOSIG RMK QFE753/1004
VFR 15°C / 10°C 190º 10kt >10km - Few Clouds 5000ft 1009 No Significant change UARR 271730Z 19005MPS 9999 FEW050CB 15/10 Q1009 NOSIG RMK QFE753/1004
VFR 14°C / 10°C 190º 8kt >10km - Few Clouds 5000ft 1009 No Significant change UARR 271700Z 19004MPS 9999 FEW050CB 14/10 Q1009 NOSIG RMK QFE753/1004
VFR 16°C / 10°C 210º 10kt >10km - Few Clouds 5000ft 1009 No Significant change UARR 271630Z 21005MPS 9999 FEW050CB 16/10 Q1009 NOSIG RMK QFE753/1004
VFR 18°C / 10°C 230º 12kt >10km - Scattered Clouds 5000ft 1009 No Significant change UARR 271600Z 23006MPS 9999 SCT050CB 18/10 Q1009 NOSIG RMK QFE753/1004
VFR 18°C / 10°C 200º 12kt >10km - Scattered Clouds 5000ft 1009 No Significant change UARR 271530Z 20006MPS 9999 SCT050CB 18/10 Q1009 NOSIG RMK QFE753/1004
VFR 19°C / 10°C 200º 16kt >10km - Scattered Clouds 5000ft 1009 No Significant change UARR 271500Z 20008MPS 9999 SCT050CB 19/10 Q1009 NOSIG RMK QFE753/1004
VFR 19°C / 10°C 220º 16kt >10km - Scattered Clouds 5000ft 1009 No Significant change UARR 271430Z 22008MPS 9999 SCT050CB 19/10 Q1009 NOSIG RMK QFE753/1004
VFR 19°C / 10°C 220º 17kt >10km - Scattered Clouds 5000ft 1009 Temporary: 22010G15MPS RMK QFE753/1004 UARR 271400Z 22009MPS 9999 SCT050CB 19/10 Q1009 TEMPO 22010G15MPS RMK QFE753/1004
VFR 19°C / 9°C 230º 16kt >10km - Scattered Clouds 5000ft 1009 Temporary: 22010G15MPS RMK QFE753/1004 UARR 271330Z 23008MPS 9999 SCT050CB 19/09 Q1009 TEMPO 22010G15MPS RMK QFE753/1004
VFR 19°C / 9°C 230º 17kt >10km - Scattered Clouds 5000ft 1009 Temporary: 22010G15MPS RMK QFE753/1004 UARR 271300Z 23009MPS 9999 SCT050CB 19/09 Q1009 TEMPO 22010G15MPS RMK QFE753/1004
VFR 19°C / 9°C 230º 19kt >10km - Scattered Clouds 5000ft 1009 Temporary: 20010G15MPS RMK QFE753/1005 UARR 271230Z 23010MPS 9999 SCT050CB 19/09 Q1009 TEMPO 20010G15MPS RMK QFE753/1005
VFR 20°C / 9°C 230º 17kt Gust 27kt >10km - Scattered Clouds 5000ft 1009 Temporary: 20010G15MPS RMK QFE753/1005 UARR 271200Z 23009G14MPS 9999 SCT050CB 20/09 Q1009 TEMPO 20010G15MPS RMK QFE753/1005
VFR 20°C / 9°C 230º 21kt >10km - Scattered Clouds 5000ft 1010 Temporary: 20010G15MPS RMK QFE754/1005 UARR 271130Z 23011MPS 9999 SCT050CB 20/09 Q1010 TEMPO 20010G15MPS RMK QFE754/1005
VFR 20°C / 9°C 230º 19kt >10km - Scattered Clouds 5000ft 1010 Temporary: 20010G15MPS RMK QFE754/1005 UARR 271100Z 23010MPS 9999 SCT050CB 20/09 Q1010 TEMPO 20010G15MPS RMK QFE754/1005
VFR 20°C / 11°C 230º 14kt >10km - Scattered Clouds 5000ft 1010 Temporary: Thunderstorm . RMK QFE754/1005 UARR 271030Z 23007MPS 9999 SCT050CB 20/11 Q1010 TEMPO TS RMK QFE754/1005
VFR 19°C / 10°C 230º 16kt >10km - Scattered Clouds 5000ft 1010 Temporary: Thunderstorm . RMK QFE754/1006 UARR 271000Z 23008MPS 9999 SCT050CB 19/10 Q1010 TEMPO TS RMK QFE754/1006

VFR

12°C / 11°C

[Mai mult]
Vânt 220º 8kt
Vizibilitate >10km
Vremea -
Nori Scattered Clouds 5000ft
Presiune 1010
Schimbă No Significant change
Brut UARR 272130Z 22004MPS 9999 SCT050CB 12/11 Q1010 NOSIG RMK QFE754/1005

VFR

12°C / 11°C

[Mai mult]
Vânt 200º 8kt
Vizibilitate >10km
Vremea -
Nori Scattered Clouds 5000ft
Presiune 1009
Schimbă No Significant change
Brut UARR 272100Z 20004MPS 9999 SCT050CB 12/11 Q1009 NOSIG RMK QFE753/1005

VFR

13°C / 12°C

[Mai mult]
Vânt 230º 6kt
Vizibilitate >10km
Vremea -
Nori Scattered Clouds 5000ft
Presiune 1009
Schimbă No Significant change
Brut UARR 272030Z 23003MPS 9999 SCT050CB 13/12 Q1009 NOSIG RMK QFE753/1005

VFR

13°C / 11°C

[Mai mult]
Vânt 270º 4kt
Vizibilitate >10km
Vremea Light Showers Rain 3.00mm precipitation
Nori Vertical Visibility of 0ft.
Presiune 1009
Schimbă No Significant change
Brut UARR 272000Z 27002MPS 9999 -SHRA SCT050CB 13/11 Q1009 NOSIG RMK QFE753/1004

VFR

16°C / 10°C

[Mai mult]
Vânt 260º 16kt
Vizibilitate >10km
Vremea Light Showers Rain 3.00mm precipitation
Nori Vertical Visibility of 0ft.
Presiune 1009
Schimbă No Significant change
Brut UARR 271930Z 26008MPS 9999 -SHRA SCT050CB 16/10 Q1009 NOSIG RMK QFE753/1005

VFR

15°C / 11°C

[Mai mult]
Vânt 190º 12kt
Vizibilitate >10km
Vremea -
Nori Scattered Clouds 5000ft
Presiune 1009
Schimbă No Significant change
Brut UARR 271900Z 19006MPS 9999 SCT050CB 15/11 Q1009 NOSIG RMK QFE753/1004

VFR

14°C / 10°C

[Mai mult]
Vânt 190º 12kt
Vizibilitate >10km
Vremea -
Nori Few Clouds 5000ft
Presiune 1008
Schimbă No Significant change
Brut UARR 271830Z 19006MPS 9999 FEW050CB 14/10 Q1008 NOSIG RMK QFE753/1004

VFR

14°C / 10°C

[Mai mult]
Vânt 180º 10kt
Vizibilitate >10km
Vremea -
Nori Few Clouds 5000ft
Presiune 1008
Schimbă No Significant change
Brut UARR 271800Z 18005MPS 9999 FEW050CB 14/10 Q1008 NOSIG RMK QFE753/1004

VFR

15°C / 10°C

[Mai mult]
Vânt 190º 10kt
Vizibilitate >10km
Vremea -
Nori Few Clouds 5000ft
Presiune 1009
Schimbă No Significant change
Brut UARR 271730Z 19005MPS 9999 FEW050CB 15/10 Q1009 NOSIG RMK QFE753/1004

VFR

14°C / 10°C

[Mai mult]
Vânt 190º 8kt
Vizibilitate >10km
Vremea -
Nori Few Clouds 5000ft
Presiune 1009
Schimbă No Significant change
Brut UARR 271700Z 19004MPS 9999 FEW050CB 14/10 Q1009 NOSIG RMK QFE753/1004

VFR

16°C / 10°C

[Mai mult]
Vânt 210º 10kt
Vizibilitate >10km
Vremea -
Nori Few Clouds 5000ft
Presiune 1009
Schimbă No Significant change
Brut UARR 271630Z 21005MPS 9999 FEW050CB 16/10 Q1009 NOSIG RMK QFE753/1004

VFR

18°C / 10°C

[Mai mult]
Vânt 230º 12kt
Vizibilitate >10km
Vremea -
Nori Scattered Clouds 5000ft
Presiune 1009
Schimbă No Significant change
Brut UARR 271600Z 23006MPS 9999 SCT050CB 18/10 Q1009 NOSIG RMK QFE753/1004

VFR

18°C / 10°C

[Mai mult]
Vânt 200º 12kt
Vizibilitate >10km
Vremea -
Nori Scattered Clouds 5000ft
Presiune 1009
Schimbă No Significant change
Brut UARR 271530Z 20006MPS 9999 SCT050CB 18/10 Q1009 NOSIG RMK QFE753/1004

VFR

19°C / 10°C

[Mai mult]
Vânt 200º 16kt
Vizibilitate >10km
Vremea -
Nori Scattered Clouds 5000ft
Presiune 1009
Schimbă No Significant change
Brut UARR 271500Z 20008MPS 9999 SCT050CB 19/10 Q1009 NOSIG RMK QFE753/1004

VFR

19°C / 10°C

[Mai mult]
Vânt 220º 16kt
Vizibilitate >10km
Vremea -
Nori Scattered Clouds 5000ft
Presiune 1009
Schimbă No Significant change
Brut UARR 271430Z 22008MPS 9999 SCT050CB 19/10 Q1009 NOSIG RMK QFE753/1004

VFR

19°C / 10°C

[Mai mult]
Vânt 220º 17kt
Vizibilitate >10km
Vremea -
Nori Scattered Clouds 5000ft
Presiune 1009
Schimbă Temporary: 22010G15MPS RMK QFE753/1004
Brut UARR 271400Z 22009MPS 9999 SCT050CB 19/10 Q1009 TEMPO 22010G15MPS RMK QFE753/1004

VFR

19°C / 9°C

[Mai mult]
Vânt 230º 16kt
Vizibilitate >10km
Vremea -
Nori Scattered Clouds 5000ft
Presiune 1009
Schimbă Temporary: 22010G15MPS RMK QFE753/1004
Brut UARR 271330Z 23008MPS 9999 SCT050CB 19/09 Q1009 TEMPO 22010G15MPS RMK QFE753/1004

VFR

19°C / 9°C

[Mai mult]
Vânt 230º 17kt
Vizibilitate >10km
Vremea -
Nori Scattered Clouds 5000ft
Presiune 1009
Schimbă Temporary: 22010G15MPS RMK QFE753/1004
Brut UARR 271300Z 23009MPS 9999 SCT050CB 19/09 Q1009 TEMPO 22010G15MPS RMK QFE753/1004

VFR

19°C / 9°C

[Mai mult]
Vânt 230º 19kt
Vizibilitate >10km
Vremea -
Nori Scattered Clouds 5000ft
Presiune 1009
Schimbă Temporary: 20010G15MPS RMK QFE753/1005
Brut UARR 271230Z 23010MPS 9999 SCT050CB 19/09 Q1009 TEMPO 20010G15MPS RMK QFE753/1005

VFR

20°C / 9°C

[Mai mult]
Vânt 230º 17kt Gust 27kt
Vizibilitate >10km
Vremea -
Nori Scattered Clouds 5000ft
Presiune 1009
Schimbă Temporary: 20010G15MPS RMK QFE753/1005
Brut UARR 271200Z 23009G14MPS 9999 SCT050CB 20/09 Q1009 TEMPO 20010G15MPS RMK QFE753/1005

VFR

20°C / 9°C

[Mai mult]
Vânt 230º 21kt
Vizibilitate >10km
Vremea -
Nori Scattered Clouds 5000ft
Presiune 1010
Schimbă Temporary: 20010G15MPS RMK QFE754/1005
Brut UARR 271130Z 23011MPS 9999 SCT050CB 20/09 Q1010 TEMPO 20010G15MPS RMK QFE754/1005

VFR

20°C / 9°C

[Mai mult]
Vânt 230º 19kt
Vizibilitate >10km
Vremea -
Nori Scattered Clouds 5000ft
Presiune 1010
Schimbă Temporary: 20010G15MPS RMK QFE754/1005
Brut UARR 271100Z 23010MPS 9999 SCT050CB 20/09 Q1010 TEMPO 20010G15MPS RMK QFE754/1005

VFR

20°C / 11°C

[Mai mult]
Vânt 230º 14kt
Vizibilitate >10km
Vremea -
Nori Scattered Clouds 5000ft
Presiune 1010
Schimbă Temporary: Thunderstorm . RMK QFE754/1005
Brut UARR 271030Z 23007MPS 9999 SCT050CB 20/11 Q1010 TEMPO TS RMK QFE754/1005

VFR

19°C / 10°C

[Mai mult]
Vânt 230º 16kt
Vizibilitate >10km
Vremea -
Nori Scattered Clouds 5000ft
Presiune 1010
Schimbă Temporary: Thunderstorm . RMK QFE754/1006
Brut UARR 271000Z 23008MPS 9999 SCT050CB 19/10 Q1010 TEMPO TS RMK QFE754/1006

TAF pentru 51.15°N 51.54°E (UARR)

From till


From till Wind 210º 12kt. Visibility 10km or more. Scattered Clouds 3300ft.
Temporarly from till Visibility 3100m. Light Showers Rain . Broken Clouds 1100ft. Broken Clouds 2000ft.
Temporarly from till Visibility 3100m. Mist . Broken Clouds 1100ft.

Brut: TAF UARR 272000Z 2721/2806 21006MPS 9999 SCT033CB TEMPO 2721/2803 3100 -SHRA BKN011 BKN020CB TEMPO 2803/2805 3100 BR BKN011

Radar și nowcast de precipitații pentru 51.15°N 51.54°E

Burniță
Ușoară
Moderat
Greu
Foarte greu
Grindină

Markerul de locație este plasat în 51.15°N 51.54°E. Această animație arată radarul de precipitații pentru ultima oră, precum și o 1h prognoză. Ploaia sau ninsoarea slabă ar putea fi invizibilă pentru radar. Intensitatea precipitațiilor este codificată prin culori, de la albastru deschis la portocaliu.

Imagini satelitare și ploaie pentru 51.15°N 51.54°E

Markerul cu locaţia este poziţionat pe 51.15°N 51.54°E. [Mai mult]

Imaginea satelitară în timp real combină lumina vizibilă din timpul zilei cu radiația cu infraroșu din timpul nopții. Pe timp de noapte, imaginea nu este întunecată, deoarece radiația cu infraroșu poate detecta diferențele de temperatură. Din păcate, norii joși și ceața sunt greu de recunoscut față de temperatura de la sol, din această cauză putând fi invizibili pe timp de noapte. Imaginile satelitare Meteosat pentru Europa sunt actualizate în timp real din 5 în 5 minute. Imaginile GOES-16/GOES-17 (America de Nord și de Sud) și Himawari (Asia) sunt actualizate din 10 în 10 minute.

Toate drepturile rezervate 2022 EUMETSAT / meteoblue. / Toate drepturile rezervate 2022 meteoblue

Mergi sus